Time,TemperatureF,DewpointF,PressureIn,WindDirection,WindDirectionDegrees,WindSpeedMPH,WindSpeedGustMPH,Humidity,HourlyPrecipIn,Conditions,Clouds,dailyrainin,SoftwareType,DateUTC
2013-12-13 00:00:00,28.4,26.1,30.09,SSW,202,6.8,-999.0,91,-99.99,,,0.00,Acu-Link.com,2013-12-13 06:00:00,
2013-12-13 00:15:00,28.6,26.3,30.08,SSW,202,7.3,-999.0,91,-99.99,,,0.00,Acu-Link.com,2013-12-13 06:15:00,
2013-12-13 00:30:00,28.4,26.1,30.08,SSW,202,8.9,-999.0,91,-99.99,,,0.00,Acu-Link.com,2013-12-13 06:30:00,
2013-12-13 00:45:00,28.6,26.3,30.08,SSW,202,8.9,-999.0,91,-99.99,,,0.00,Acu-Link.com,2013-12-13 06:45:00,
2013-12-13 01:00:00,28.4,26.1,30.07,SSW,202,7.8,-999.0,91,-99.99,,,0.00,Acu-Link.com,2013-12-13 07:00:00,
2013-12-13 01:16:00,28.2,26.2,30.06,SW,225,7.8,-999.0,92,-99.99,,,0.00,Acu-Link.com,2013-12-13 07:16:00,
2013-12-13 01:31:00,27.5,25.7,30.06,SSW,202,6.3,-999.0,93,-99.99,,,0.00,Acu-Link.com,2013-12-13 07:31:00,
2013-12-13 01:46:00,27.0,25.3,30.05,SSW,202,6.3,-999.0,93,-99.99,,,0.00,Acu-Link.com,2013-12-13 07:46:00,
2013-12-13 02:01:00,26.8,25.3,30.05,SW,225,5.8,-999.0,94,-99.99,,,0.00,Acu-Link.com,2013-12-13 08:01:00,
2013-12-13 02:16:00,26.2,24.7,30.06,SSW,202,4.7,-999.0,94,-99.99,,,0.00,Acu-Link.com,2013-12-13 08:16:00,
2013-12-13 02:31:00,26.1,24.9,30.05,SSW,202,5.3,-999.0,95,-99.99,,,0.00,Acu-Link.com,2013-12-13 08:31:00,
2013-12-13 02:46:00,25.3,24.3,30.04,SSW,202,5.3,-999.0,96,-99.99,,,0.00,Acu-Link.com,2013-12-13 08:46:00,
2013-12-13 03:01:00,25.2,24.2,30.04,South,180,4.7,-999.0,96,-99.99,,,0.00,Acu-Link.com,2013-12-13 09:01:00,
2013-12-13 03:44:00,25.2,24.2,30.04,SSW,202,9.4,-999.0,96,-99.99,,,0.00,Acu-Link.com,2013-12-13 09:44:00,
2013-12-13 03:59:00,25.5,24.0,30.01,South,180,9.9,-999.0,94,-99.99,,,0.00,Acu-Link.com,2013-12-13 09:59:00,
2013-12-13 04:14:00,25.9,24.2,30.01,SSW,202,11.4,-999.0,93,-99.99,,,0.00,Acu-Link.com,2013-12-13 10:14:00,
2013-12-13 04:30:00,25.9,23.9,29.99,South,180,11.4,-999.0,92,-99.99,,,0.00,Acu-Link.com,2013-12-13 10:30:00,
2013-12-13 04:45:00,26.1,23.8,29.99,SSW,202,8.9,-999.0,91,-99.99,,,0.00,Acu-Link.com,2013-12-13 10:45:00,
2013-12-13 05:00:00,26.4,23.9,29.98,South,180,11.4,-999.0,90,-99.99,,,0.00,Acu-Link.com,2013-12-13 11:00:00,
2013-12-13 05:15:00,26.6,23.8,29.97,SSW,202,7.3,-999.0,89,-99.99,,,0.00,Acu-Link.com,2013-12-13 11:15:00,
2013-12-13 05:30:00,27.5,24.7,29.96,South,180,6.3,-999.0,89,-99.99,,,0.00,Acu-Link.com,2013-12-13 11:30:00,
2013-12-13 05:45:00,28.6,25.2,29.96,South,180,6.8,-999.0,87,-99.99,,,0.00,Acu-Link.com,2013-12-13 11:45:00,
2013-12-13 06:00:00,29.1,25.4,29.97,South,180,9.4,-999.0,86,-99.99,,,0.00,Acu-Link.com,2013-12-13 12:00:00,
2013-12-13 06:15:00,29.3,25.4,29.96,South,180,8.3,-999.0,85,-99.99,,,0.00,Acu-Link.com,2013-12-13 12:15:00,
2013-12-13 06:30:00,29.8,25.6,29.95,South,180,7.8,-999.0,84,-99.99,,,0.00,Acu-Link.com,2013-12-13 12:30:00,
2013-12-13 06:46:00,30.4,26.2,29.95,South,180,10.9,-999.0,84,-99.99,,,0.00,Acu-Link.com,2013-12-13 12:46:00,
2013-12-13 07:01:00,30.6,26.1,29.95,South,180,5.8,-999.0,83,-99.99,,,0.00,Acu-Link.com,2013-12-13 13:01:00,
2013-12-13 07:16:00,31.3,26.5,29.95,South,180,10.4,-999.0,82,-99.99,,,0.00,Acu-Link.com,2013-12-13 13:16:00,
2013-12-13 07:31:00,31.8,26.9,29.95,SSW,202,6.8,-999.0,82,-99.99,,,0.00,Acu-Link.com,2013-12-13 13:31:00,
2013-12-13 07:46:00,32.2,27.3,29.93,South,180,9.9,-999.0,82,-99.99,,,0.00,Acu-Link.com,2013-12-13 13:46:00,
2013-12-13 08:01:00,32.7,27.8,29.93,South,180,8.9,-999.0,82,-99.99,,,0.00,Acu-Link.com,2013-12-13 14:01:00,
2013-12-13 08:16:00,32.0,29.7,29.93,SSW,202,8.9,-999.0,91,-99.99,,,0.00,Acu-Link.com,2013-12-13 14:16:00,
2013-12-13 08:31:00,31.8,31.0,29.93,SSE,157,13.0,-999.0,97,-99.99,,,0.01,Acu-Link.com,2013-12-13 14:31:00,
2013-12-13 08:47:00,32.4,31.9,29.92,South,180,10.4,-999.0,98,-99.99,,,0.02,Acu-Link.com,2013-12-13 14:47:00,
2013-12-13 09:02:00,32.5,32.0,29.92,SW,225,6.3,-999.0,98,-99.99,,,0.02,Acu-Link.com,2013-12-13 15:02:00,
2013-12-13 09:17:00,32.9,32.4,29.92,SSW,202,8.3,-999.0,98,-99.99,,,0.02,Acu-Link.com,2013-12-13 15:17:00,
2013-12-13 09:32:00,33.1,31.8,29.93,SSE,157,7.8,-999.0,95,-99.99,,,0.03,Acu-Link.com,2013-12-13 15:32:00,
2013-12-13 09:47:00,33.3,29.6,29.92,SSE,157,7.8,-999.0,86,-99.99,,,0.06,Acu-Link.com,2013-12-13 15:47:00,
2013-12-13 10:02:00,33.6,29.6,29.93,SSW,202,7.8,-999.0,85,-99.99,,,0.07,Acu-Link.com,2013-12-13 16:02:00,
2013-12-13 10:17:00,33.8,29.8,29.92,South,180,4.7,-999.0,85,-99.99,,,0.10,Acu-Link.com,2013-12-13 16:17:00,
2013-12-13 10:32:00,34.2,31.6,29.92,SSE,157,7.8,-999.0,90,-99.99,,,0.11,Acu-Link.com,2013-12-13 16:32:00,
2013-12-13 10:47:00,34.3,29.7,29.91,South,180,5.8,-999.0,83,-99.99,,,0.13,Acu-Link.com,2013-12-13 16:47:00,
2013-12-13 11:03:00,34.5,31.0,29.90,SSE,157,7.3,-999.0,87,-99.99,,,0.14,Acu-Link.com,2013-12-13 17:03:00,
2013-12-13 11:18:00,34.5,32.7,29.90,SSW,202,5.3,-999.0,93,-99.99,,,0.14,Acu-Link.com,2013-12-13 17:18:00,
2013-12-13 11:33:00,34.5,31.9,29.88,SSE,157,4.7,-999.0,90,-99.99,,,0.16,Acu-Link.com,2013-12-13 17:33:00,
2013-12-13 11:48:00,34.5,30.8,29.87,South,180,7.8,-999.0,86,-99.99,,,0.17,Acu-Link.com,2013-12-13 17:48:00,
2013-12-13 12:03:00,34.5,31.9,29.87,SSE,157,4.7,-999.0,90,-99.99,,,0.17,Acu-Link.com,2013-12-13 18:03:00,
2013-12-13 12:18:00,34.7,30.4,29.86,South,180,4.2,-999.0,84,-99.99,,,0.17,Acu-Link.com,2013-12-13 18:18:00,
2013-12-13 12:33:00,34.7,22.3,29.85,South,180,5.3,-999.0,60,-99.99,,,0.25,Acu-Link.com,2013-12-13 18:33:00,
2013-12-13 12:48:00,34.9,25.4,29.83,South,180,6.3,-999.0,68,-99.99,,,0.25,Acu-Link.com,2013-12-13 18:48:00,
2013-12-13 13:03:00,35.2,28.1,29.82,South,180,5.8,-999.0,75,-99.99,,,0.25,Acu-Link.com,2013-12-13 19:03:00,
2013-12-13 13:19:00,35.4,29.2,29.83,South,180,8.9,-999.0,78,-99.99,,,0.25,Acu-Link.com,2013-12-13 19:19:00,
2013-12-13 13:34:00,35.4,28.0,29.82,SSE,157,7.3,-999.0,74,-99.99,,,0.27,Acu-Link.com,2013-12-13 19:34:00,
2013-12-13 13:49:00,35.2,15.5,29.81,South,180,7.3,-999.0,44,-99.99,,,0.37,Acu-Link.com,2013-12-13 19:49:00,
2013-12-13 14:04:00,35.2,-5.2,29.80,SSE,157,4.7,-999.0,17,-99.99,,,0.46,Acu-Link.com,2013-12-13 20:04:00,
2013-12-13 14:19:00,35.2,-9.2,29.79,South,180,5.3,-999.0,14,-99.99,,,0.52,Acu-Link.com,2013-12-13 20:19:00,
2013-12-13 14:34:00,35.4,-10.5,29.79,South,180,10.4,-999.0,13,-99.99,,,0.56,Acu-Link.com,2013-12-13 20:34:00,
2013-12-13 14:49:00,35.6,-22.4,29.79,South,180,8.3,-999.0,7,-99.99,,,0.64,Acu-Link.com,2013-12-13 20:49:00,
2013-12-13 15:05:00,35.6,-7.4,29.80,SSE,157,8.9,-999.0,15,-99.99,,,0.66,Acu-Link.com,2013-12-13 21:05:00,
2013-12-13 15:20:00,35.4,2.2,29.79,SSE,157,7.8,-999.0,24,-99.99,,,0.68,Acu-Link.com,2013-12-13 21:20:00,
2013-12-13 15:35:00,35.4,3.1,29.80,SSE,157,9.9,-999.0,25,-99.99,,,0.70,Acu-Link.com,2013-12-13 21:35:00,
2013-12-13 15:50:00,35.2,6.9,29.79,South,180,8.9,-999.0,30,-99.99,,,0.74,Acu-Link.com,2013-12-13 21:50:00,
2013-12-13 16:05:00,35.2,-5.2,29.79,SSW,202,9.9,-999.0,17,-99.99,,,0.77,Acu-Link.com,2013-12-13 22:05:00,
2013-12-13 16:20:00,34.9,-14.2,29.79,SSE,157,6.3,-999.0,11,-99.99,,,0.80,Acu-Link.com,2013-12-13 22:20:00,
2013-12-13 16:35:00,34.9,-22.9,29.79,SSE,157,5.8,-999.0,7,-99.99,,,0.84,Acu-Link.com,2013-12-13 22:35:00,
2013-12-13 16:50:00,34.9,-56.3,29.79,SSE,157,5.8,-999.0,1,-99.99,,,0.86,Acu-Link.com,2013-12-13 22:50:00,
2013-12-13 17:06:00,34.9,-56.3,29.79,SSE,157,5.3,-999.0,1,-99.99,,,0.88,Acu-Link.com,2013-12-13 23:06:00,
2013-12-13 17:21:00,34.9,-56.3,29.78,South,180,6.8,-999.0,1,-99.99,,,0.90,Acu-Link.com,2013-12-13 23:21:00,
2013-12-13 17:36:00,34.9,-56.3,29.78,South,180,6.3,-999.0,1,-99.99,,,0.91,Acu-Link.com,2013-12-13 23:36:00,
2013-12-13 17:51:00,34.9,-56.3,29.78,South,180,8.9,-999.0,1,-99.99,,,0.95,Acu-Link.com,2013-12-13 23:51:00,
2013-12-13 18:06:00,34.9,-56.3,29.78,SSE,157,4.7,-999.0,1,-99.99,,,0.98,Acu-Link.com,2013-12-14 00:06:00,
2013-12-13 18:21:00,34.9,-56.3,29.78,SSE,157,6.3,-999.0,1,-99.99,,,0.98,Acu-Link.com,2013-12-14 00:21:00,
2013-12-13 18:36:00,34.7,-56.4,29.79,South,180,5.8,-999.0,1,-99.99,,,0.99,Acu-Link.com,2013-12-14 00:36:00,
2013-12-13 18:51:00,34.7,-56.4,29.79,SSE,157,3.7,-999.0,1,-99.99,,,1.01,Acu-Link.com,2013-12-14 00:51:00,
2013-12-13 19:06:00,34.5,-56.5,29.79,SSE,157,2.7,-999.0,1,-99.99,,,1.04,Acu-Link.com,2013-12-14 01:06:00,
2013-12-13 19:22:00,34.5,-56.5,29.79,SSE,157,3.7,-999.0,1,-99.99,,,1.04,Acu-Link.com,2013-12-14 01:22:00,
2013-12-13 19:37:00,34.2,-56.7,29.78,SE,135,3.7,-999.0,1,-99.99,,,1.05,Acu-Link.com,2013-12-14 01:37:00,
2013-12-13 19:52:00,34.0,-56.8,29.79,SSE,157,3.2,-999.0,1,-99.99,,,1.06,Acu-Link.com,2013-12-14 01:52:00,
2013-12-13 20:07:00,34.0,-56.8,29.79,SSE,157,4.2,-999.0,1,-99.99,,,1.07,Acu-Link.com,2013-12-14 02:07:00,
2013-12-13 20:22:00,33.8,-56.9,29.79,SSE,157,3.2,-999.0,1,-99.99,,,1.08,Acu-Link.com,2013-12-14 02:22:00,
2013-12-13 20:37:00,33.6,-57.1,29.79,ESE,112,2.2,-999.0,1,-99.99,,,1.08,Acu-Link.com,2013-12-14 02:37:00,
2013-12-13 20:52:00,33.6,-57.1,29.80,ESE,112,1.7,-999.0,1,-99.99,,,1.09,Acu-Link.com,2013-12-14 02:52:00,
2013-12-13 21:07:00,33.6,-57.1,29.79,ESE,112,2.7,-999.0,1,-99.99,,,1.09,Acu-Link.com,2013-12-14 03:07:00,
2013-12-13 21:22:00,33.6,-57.1,29.77,East,90,2.2,-999.0,1,-99.99,,,1.10,Acu-Link.com,2013-12-14 03:22:00,
2013-12-13 21:38:00,33.6,-57.1,29.78,East,90,2.2,-999.0,1,-99.99,,,1.10,Acu-Link.com,2013-12-14 03:38:00,
2013-12-13 21:53:00,33.4,-57.2,29.78,ENE,67,2.7,-999.0,1,-99.99,,,1.10,Acu-Link.com,2013-12-14 03:53:00,
2013-12-13 22:08:00,33.3,-57.3,29.80,ESE,112,2.2,-999.0,1,-99.99,,,1.10,Acu-Link.com,2013-12-14 04:08:00,
2013-12-13 22:23:00,33.1,-57.4,29.79,ESE,112,2.7,-999.0,1,-99.99,,,1.10,Acu-Link.com,2013-12-14 04:23:00,
2013-12-13 22:38:00,32.9,-57.5,29.79,ENE,67,3.2,-999.0,1,-99.99,,,1.10,Acu-Link.com,2013-12-14 04:38:00,
2013-12-13 22:53:00,32.7,-57.6,29.78,East,90,2.7,-999.0,1,-99.99,,,1.10,Acu-Link.com,2013-12-14 04:53:00,
2013-12-13 23:09:00,32.7,-57.6,29.78,ENE,67,2.2,-999.0,1,-99.99,,,1.10,Acu-Link.com,2013-12-14 05:09:00,
2013-12-13 23:24:00,32.7,-57.6,29.78,NE,45,3.2,-999.0,1,-99.99,,,1.11,Acu-Link.com,2013-12-14 05:24:00,
2013-12-13 23:39:00,32.5,-57.8,29.79,ENE,67,1.7,-999.0,1,-99.99,,,1.11,Acu-Link.com,2013-12-14 05:39:00,
2013-12-13 23:54:00,32.5,-57.8,29.80,ENE,67,0.0,-999.0,1,-99.99,,,1.11,Acu-Link.com,2013-12-14 05:54:00,